Time;durP1;ratioP1;P1;durP2;ratioP2;P2;SDS_P1;SDS_P2;PMS_P1;PMS_P2;Temp;Humidity;BMP_temperature;BMP_pressure;BME280_temperature;BME280_humidity;BME280_pressure;Samples;Min_cycle;Max_cycle;Signal;HPM_P1;HPM_P2
2022/05/15 00:00:41;;;;;;;8.43;5.90;;;14.10;86.70;;;;;;5051713;28;20431;-64
2022/05/15 00:03:14;;;;;;;8.20;5.50;;;14.20;86.70;;;;;;5051625;28;20444;-67
2022/05/15 00:05:43;;;;;;;6.63;6.00;;;14.10;86.60;;;;;;5031118;28;20450;-64
2022/05/15 00:08:13;;;;;;;6.37;5.77;;;14.10;86.60;;;;;;5031607;28;20500;-66
2022/05/15 00:10:43;;;;;;;7.60;6.20;;;14.10;86.60;;;;;;5031677;28;20509;-64
2022/05/15 00:13:10;;;;;;;11.03;6.57;;;14.10;86.60;;;;;;5032128;28;20536;-63
2022/05/15 00:15:38;;;;;;;11.33;6.20;;;14.00;87.00;;;;;;5050394;28;20494;-63
2022/05/15 00:18:07;;;;;;;9.50;6.33;;;14.00;86.90;;;;;;5051792;28;20441;-64
2022/05/15 00:20:36;;;;;;;8.50;7.03;;;14.00;87.00;;;;;;5051093;28;20441;-63
2022/05/15 00:23:04;;;;;;;6.60;5.90;;;14.00;87.10;;;;;;5051362;28;20429;-63
2022/05/15 00:25:34;;;;;;;6.93;6.00;;;13.90;86.40;;;;;;5051207;28;20920;-63
2022/05/15 00:28:05;;;;;;;7.60;5.97;;;13.90;86.40;;;;;;5051556;28;20494;-64
2022/05/15 00:30:34;;;;;;;8.00;6.70;;;13.90;86.50;;;;;;5051083;28;20476;-63
2022/05/15 00:33:01;;;;;;;8.77;6.30;;;13.80;86.60;;;;;;5051632;28;20444;-64
2022/05/15 00:35:29;;;;;;;12.00;7.00;;;13.80;87.10;;;;;;5050628;28;20476;-63
2022/05/15 00:37:56;;;;;;;10.37;8.63;;;13.80;87.20;;;;;;5051152;28;20452;-63
2022/05/15 00:40:25;;;;;;;10.70;7.20;;;13.80;87.40;;;;;;5050645;28;20495;-63
2022/05/15 00:42:53;;;;;;;9.37;7.30;;;13.70;87.80;;;;;;5051085;28;20432;-63
2022/05/15 00:45:22;;;;;;;6.47;5.67;;;13.70;87.90;;;;;;5050805;28;20792;-63
2022/05/15 00:47:51;;;;;;;8.40;5.63;;;13.70;87.40;;;;;;5050441;28;20814;-63
2022/05/15 00:50:26;;;;;;;6.60;6.00;;;13.60;87.40;;;;;;5050221;28;20437;-63
2022/05/15 00:52:58;;;;;;;10.50;5.80;;;13.60;88.00;;;;;;5050709;28;20535;-63
2022/05/15 00:55:32;;;;;;;7.10;6.40;;;13.60;88.10;;;;;;5050605;28;20555;-63
2022/05/15 00:58:06;;;;;;;7.60;6.80;;;13.60;88.20;;;;;;5051927;28;20515;-63
2022/05/15 01:00:35;;;;;;;10.13;6.70;;;13.50;88.80;;;;;;5051479;28;20444;-63
2022/05/15 01:03:07;;;;;;;7.60;6.90;;;13.40;89.40;;;;;;5051819;28;20433;-63
2022/05/15 01:05:37;;;;;;;7.30;5.93;;;13.40;89.60;;;;;;5050993;28;20449;-64
2022/05/15 01:08:04;;;;;;;6.33;5.70;;;13.40;89.50;;;;;;5051960;28;20459;-64
2022/05/15 01:10:32;;;;;;;8.90;8.00;;;13.40;89.50;;;;;;5051772;28;20437;-63
2022/05/15 01:13:01;;;;;;;8.40;7.43;;;13.40;89.70;;;;;;5051728;28;20920;-63
2022/05/15 01:15:29;;;;;;;7.40;6.70;;;13.30;90.10;;;;;;5051181;28;21025;-63
2022/05/15 01:17:57;;;;;;;11.50;6.00;;;13.30;90.20;;;;;;5053993;28;20441;-63
2022/05/15 01:20:27;;;;;;;8.33;6.07;;;13.30;90.00;;;;;;5055651;28;20456;-64
2022/05/15 01:22:55;;;;;;;7.50;6.63;;;13.30;89.50;;;;;;5055342;28;20451;-62
2022/05/15 01:25:25;;;;;;;6.03;5.37;;;13.30;89.10;;;;;;5055691;28;20483;-63
2022/05/15 01:28:00;;;;;;;8.00;6.00;;;13.30;88.10;;;;;;5055201;28;20479;-63
2022/05/15 01:30:28;;;;;;;6.60;5.67;;;13.10;87.30;;;;;;5055515;28;20483;-63
2022/05/15 01:32:56;;;;;;;8.30;7.50;;;13.10;88.10;;;;;;5055268;28;20518;-62
2022/05/15 01:35:25;;;;;;;8.13;7.33;;;13.00;89.20;;;;;;5054391;28;20508;-63
2022/05/15 01:37:52;;;;;;;12.50;7.30;;;12.90;90.30;;;;;;5055156;28;20521;-63
2022/05/15 01:40:21;;;;;;;8.63;7.33;;;12.90;90.60;;;;;;5055398;28;20927;-63
2022/05/15 01:42:48;;;;;;;11.80;7.30;;;12.90;90.60;;;;;;5055035;28;20444;-63
2022/05/15 01:45:17;;;;;;;7.80;7.00;;;12.80;90.20;;;;;;5055231;28;20445;-63
2022/05/15 01:47:44;;;;;;;6.77;6.07;;;12.80;90.10;;;;;;5054734;28;20535;-63
2022/05/15 01:50:14;;;;;;;9.07;6.87;;;12.70;90.10;;;;;;5055403;28;20468;-63
2022/05/15 01:52:43;;;;;;;6.73;6.03;;;12.70;90.00;;;;;;5054655;28;20440;-63
2022/05/15 01:55:11;;;;;;;5.37;4.87;;;12.70;90.20;;;;;;5054440;28;20915;-64
2022/05/15 01:57:40;;;;;;;6.33;5.73;;;12.70;90.20;;;;;;5055038;28;20953;-63
2022/05/15 02:00:12;;;;;;;7.10;6.30;;;12.70;90.60;;;;;;5054898;28;20777;-63
2022/05/15 02:02:40;;;;;;;11.13;7.50;;;12.70;89.90;;;;;;5055091;28;20436;-63
2022/05/15 02:05:08;;;;;;;6.93;5.83;;;12.50;90.00;;;;;;5054395;28;20983;-63
2022/05/15 02:07:35;;;;;;;11.50;6.87;;;12.40;89.80;;;;;;5054912;28;20428;-64
2022/05/15 02:10:03;;;;;;;7.23;5.37;;;12.30;88.70;;;;;;5054697;28;20441;-63
2022/05/15 02:12:30;;;;;;;10.80;7.35;;;12.20;89.20;;;;;;5054832;28;20437;-62
2022/05/15 02:15:00;;;;;;;10.88;8.30;;;12.20;90.00;;;;;;5054366;28;20278;-62
2022/05/15 02:17:27;;;;;;;8.95;8.05;;;12.10;90.80;;;;;;5054771;28;20561;-62
2022/05/15 02:19:54;;;;;;;12.50;7.20;;;12.10;91.10;;;;;;5053714;28;20285;-62
2022/05/15 02:22:22;;;;;;;9.30;6.72;;;12.10;91.10;;;;;;5053882;28;20214;-62
2022/05/15 02:24:52;;;;;;;9.80;7.13;;;12.10;91.20;;;;;;5054807;28;20186;-62
2022/05/15 02:27:19;;;;;;;7.37;6.13;;;12.10;91.20;;;;;;5053965;28;20183;-62
2022/05/15 02:29:46;;;;;;;6.97;6.28;;;12.20;91.00;;;;;;5053517;28;20433;-62
2022/05/15 02:32:15;;;;;;;7.22;6.53;;;12.10;90.90;;;;;;5054395;28;20206;-62
2022/05/15 02:34:42;;;;;;;9.23;6.85;;;12.10;91.00;;;;;;5053006;28;20195;-63
2022/05/15 02:37:09;;;;;;;6.65;5.95;;;12.10;91.50;;;;;;5054002;28;20306;-62
2022/05/15 02:39:37;;;;;;;6.00;5.40;;;12.00;91.90;;;;;;5053929;28;20198;-64
2022/05/15 02:42:05;;;;;;;6.30;5.70;;;11.90;92.00;;;;;;5054554;28;20248;-62
2022/05/15 02:44:32;;;;;;;6.85;6.20;;;12.00;92.30;;;;;;5054417;28;20202;-62
2022/05/15 02:46:59;;;;;;;8.00;6.07;;;12.10;92.20;;;;;;5053369;28;20288;-62
2022/05/15 02:52:12;;;;;;;6.97;5.90;;;12.20;92.40;;;;;;5034322;28;20262;-62
2022/05/15 02:54:40;;;;;;;7.50;6.40;;;12.20;92.40;;;;;;5034086;28;20237;-66
2022/05/15 02:57:09;;;;;;;8.40;6.40;;;12.10;92.40;;;;;;5053765;28;20545;-63
2022/05/15 02:59:37;;;;;;;7.23;5.60;;;12.00;92.50;;;;;;5054119;28;20512;-63
2022/05/15 03:02:05;;;;;;;10.20;6.40;;;12.00;92.60;;;;;;5053511;28;20445;-63
2022/05/15 03:04:36;;;;;;;6.68;5.97;;;12.00;92.50;;;;;;5054182;28;20186;-63
2022/05/15 03:07:05;;;;;;;7.55;5.93;;;12.10;92.60;;;;;;5052971;28;20193;-63
2022/05/15 03:09:33;;;;;;;7.55;6.20;;;12.10;92.40;;;;;;5053126;28;20285;-63
2022/05/15 03:12:01;;;;;;;8.90;8.10;;;12.10;92.50;;;;;;5053376;28;20230;-62
2022/05/15 03:14:28;;;;;;;7.90;6.90;;;12.00;92.60;;;;;;5052986;28;20638;-63
2022/05/15 03:16:55;;;;;;;7.00;6.30;;;12.00;92.90;;;;;;5053489;28;20229;-62
2022/05/15 03:19:22;;;;;;;6.30;5.63;;;11.90;92.90;;;;;;5053037;28;20713;-62
2022/05/15 03:21:52;;;;;;;7.45;6.65;;;11.90;92.90;;;;;;5053129;28;20657;-63
2022/05/15 03:24:19;;;;;;;9.45;7.15;;;12.00;93.00;;;;;;5052965;28;20194;-62
2022/05/15 03:26:48;;;;;;;10.85;5.68;;;12.00;92.60;;;;;;5053459;28;20197;-62
2022/05/15 03:29:18;;;;;;;7.70;6.28;;;12.00;92.60;;;;;;5053080;28;20182;-62
2022/05/15 03:31:46;;;;;;;6.53;5.57;;;12.00;92.70;;;;;;5053451;28;20191;-62
2022/05/15 03:34:16;;;;;;;6.55;5.43;;;12.10;92.80;;;;;;5052704;28;20289;-62
2022/05/15 03:36:45;;;;;;;6.75;5.88;;;12.00;92.50;;;;;;5053142;28;20226;-62
2022/05/15 03:39:15;;;;;;;10.23;6.57;;;12.10;92.50;;;;;;5052618;28;20234;-64
2022/05/15 03:41:43;;;;;;;6.40;5.80;;;12.10;92.50;;;;;;5052256;28;20195;-65
2022/05/15 03:44:10;;;;;;;6.80;5.63;;;12.10;92.30;;;;;;5052558;28;20187;-65
2022/05/15 03:46:38;;;;;;;8.35;5.85;;;12.00;91.60;;;;;;5052890;28;20461;-65
2022/05/15 03:49:07;;;;;;;10.50;6.55;;;12.00;91.50;;;;;;5053032;28;20197;-64
2022/05/15 03:51:34;;;;;;;6.10;5.50;;;12.00;91.50;;;;;;5053188;28;20253;-64
2022/05/15 03:54:02;;;;;;;8.23;4.93;;;12.00;91.40;;;;;;5052699;28;20190;-68
2022/05/15 03:59:16;;;;;;;6.30;5.70;;;12.00;91.80;;;;;;5052435;28;20664;-66
2022/05/15 04:01:43;;;;;;;7.53;6.32;;;12.00;92.00;;;;;;5052900;28;20795;-64
2022/05/15 04:04:11;;;;;;;6.38;5.70;;;12.00;91.80;;;;;;5052741;28;20649;-64
2022/05/15 04:06:39;;;;;;;15.82;6.35;;;12.00;91.40;;;;;;5053164;28;20198;-64
2022/05/15 04:09:06;;;;;;;6.50;5.60;;;12.00;91.50;;;;;;5052727;28;20213;-65
2022/05/15 04:11:35;;;;;;;8.07;6.45;;;12.00;91.60;;;;;;5053060;28;20190;-64
2022/05/15 04:14:03;;;;;;;6.40;5.80;;;11.90;91.00;;;;;;5052908;28;20542;-64
2022/05/15 04:16:30;;;;;;;7.55;6.18;;;11.90;91.50;;;;;;5052856;28;20222;-64
2022/05/15 04:18:58;;;;;;;8.32;6.13;;;12.00;91.90;;;;;;5052572;28;20195;-64
2022/05/15 04:21:26;;;;;;;10.45;5.65;;;12.00;92.30;;;;;;5052773;28;20225;-64
2022/05/15 04:23:53;;;;;;;6.47;5.85;;;12.00;92.60;;;;;;5052504;28;20205;-64
2022/05/15 04:26:21;;;;;;;7.68;6.40;;;12.00;92.80;;;;;;5052724;28;20232;-64
2022/05/15 04:28:50;;;;;;;8.55;5.55;;;12.00;92.70;;;;;;5052309;28;20202;-64
2022/05/15 04:31:17;;;;;;;6.88;6.18;;;12.00;92.70;;;;;;5050909;28;20187;-64
2022/05/15 04:33:45;;;;;;;7.35;6.10;;;12.00;92.80;;;;;;5051945;28;20206;-65
2022/05/15 04:36:12;;;;;;;7.10;5.65;;;12.00;93.00;;;;;;5052483;28;20252;-64
2022/05/15 04:38:39;;;;;;;6.57;5.85;;;12.00;93.00;;;;;;5052225;28;20556;-64
2022/05/15 04:41:07;;;;;;;9.68;5.80;;;11.90;93.20;;;;;;5052651;28;20651;-64
2022/05/15 04:43:34;;;;;;;10.50;5.60;;;11.90;93.60;;;;;;5052458;28;20636;-64
2022/05/15 04:46:07;;;;;;;6.10;5.50;;;11.90;94.10;;;;;;5052582;28;20190;-64
2022/05/15 04:48:34;;;;;;;6.60;5.97;;;12.00;94.30;;;;;;5052000;28;20190;-64
2022/05/15 04:51:01;;;;;;;6.20;5.57;;;12.00;94.50;;;;;;5052360;28;20202;-64
2022/05/15 04:53:30;;;;;;;6.68;5.68;;;12.20;94.30;;;;;;5051856;28;20273;-65
2022/05/15 04:55:57;;;;;;;7.80;6.20;;;12.20;94.60;;;;;;5052309;28;20191;-64
2022/05/15 04:58:25;;;;;;;7.95;5.80;;;12.30;94.70;;;;;;5051813;28;20182;-64
2022/05/15 05:00:52;;;;;;;11.13;7.85;;;12.30;94.60;;;;;;5051070;28;20209;-64
2022/05/15 05:03:22;;;;;;;12.55;8.13;;;12.40;94.90;;;;;;5051993;28;20190;-65
2022/05/15 05:05:49;;;;;;;7.03;6.33;;;12.50;95.20;;;;;;5052024;28;20580;-64
2022/05/15 05:08:16;;;;;;;7.10;5.13;;;12.70;95.50;;;;;;5051910;28;20503;-64
2022/05/15 05:10:43;;;;;;;7.87;5.70;;;12.80;95.50;;;;;;5052414;28;20437;-64
2022/05/15 05:13:11;;;;;;;8.33;6.40;;;12.90;95.30;;;;;;5052116;28;20432;-65
2022/05/15 05:15:38;;;;;;;5.60;5.00;;;13.00;95.20;;;;;;5051884;28;20483;-64
2022/05/15 05:18:06;;;;;;;6.60;5.50;;;13.10;95.10;;;;;;5051829;28;20481;-65
2022/05/15 05:20:35;;;;;;;8.20;5.33;;;13.20;95.00;;;;;;5032338;28;20920;-65
2022/05/15 05:23:02;;;;;;;8.37;7.00;;;13.30;95.00;;;;;;5031946;28;20948;-62
2022/05/15 05:25:29;;;;;;;7.23;6.53;;;13.30;95.20;;;;;;5051257;28;20433;-62
2022/05/15 05:27:56;;;;;;;7.97;6.53;;;13.50;95.30;;;;;;5051650;28;20445;-62
2022/05/15 05:30:25;;;;;;;7.30;5.63;;;13.60;95.10;;;;;;5051701;28;20444;-63
2022/05/15 05:32:53;;;;;;;10.27;6.57;;;13.60;94.90;;;;;;5051985;28;20444;-62
2022/05/15 05:35:23;;;;;;;6.77;6.10;;;13.70;95.00;;;;;;5051608;28;20447;-62
2022/05/15 05:37:53;;;;;;;6.90;5.90;;;13.80;95.20;;;;;;5051826;28;21087;-62
2022/05/15 05:40:21;;;;;;;8.47;6.63;;;13.90;95.00;;;;;;5051600;28;20440;-63
2022/05/15 05:42:48;;;;;;;7.03;6.33;;;14.00;95.00;;;;;;5051893;28;20499;-64
2022/05/15 05:45:17;;;;;;;7.97;6.03;;;14.20;94.90;;;;;;5051144;28;20808;-66
2022/05/15 05:47:46;;;;;;;8.47;6.27;;;14.20;94.40;;;;;;5051358;28;20476;-64
2022/05/15 05:50:14;;;;;;;6.60;5.97;;;14.30;94.00;;;;;;5051604;28;20471;-65
2022/05/15 05:52:42;;;;;;;7.40;5.87;;;14.40;94.50;;;;;;5051452;28;20433;-65
2022/05/15 05:55:13;;;;;;;7.13;6.33;;;14.50;94.10;;;;;;5051321;28;20456;-65
2022/05/15 05:57:41;;;;;;;6.37;5.73;;;14.60;94.50;;;;;;5051572;28;20838;-65
2022/05/15 06:00:12;;;;;;;6.20;5.60;;;14.70;94.30;;;;;;5050931;28;20440;-65
2022/05/15 06:02:40;;;;;;;7.60;6.17;;;14.80;94.20;;;;;;5051628;28;20456;-65
2022/05/15 06:05:07;;;;;;;7.80;6.10;;;14.90;94.30;;;;;;5054277;28;20438;-66
2022/05/15 06:07:34;;;;;;;7.43;6.27;;;15.10;94.50;;;;;;5055163;28;20575;-64
2022/05/15 06:10:04;;;;;;;6.10;5.50;;;15.20;94.20;;;;;;5055731;28;20437;-65
2022/05/15 06:12:33;;;;;;;6.20;5.60;;;15.30;93.70;;;;;;5054825;28;20437;-63
2022/05/15 06:15:00;;;;;;;6.53;5.90;;;15.40;93.20;;;;;;5055188;28;20487;-62
2022/05/15 06:17:30;;;;;;;8.23;5.80;;;15.50;93.60;;;;;;5054788;28;20472;-62
2022/05/15 06:19:58;;;;;;;7.70;6.87;;;15.60;93.80;;;;;;5055209;28;20445;-62
2022/05/15 06:22:25;;;;;;;9.90;6.73;;;15.70;93.90;;;;;;5054509;28;20649;-63
2022/05/15 06:24:53;;;;;;;11.57;5.60;;;15.90;93.80;;;;;;5054917;28;20469;-62
2022/05/15 06:27:20;;;;;;;6.90;5.60;;;16.00;93.20;;;;;;5054602;28;20437;-62
2022/05/15 06:29:50;;;;;;;7.37;6.30;;;16.10;93.10;;;;;;5054697;28;20437;-64
2022/05/15 06:32:17;;;;;;;8.40;5.70;;;16.30;93.40;;;;;;5054519;28;20528;-62
2022/05/15 06:34:44;;;;;;;7.73;6.43;;;16.40;93.10;;;;;;5054854;28;20510;-63
2022/05/15 06:37:12;;;;;;;5.83;5.23;;;16.60;92.80;;;;;;5054310;28;20508;-63
2022/05/15 06:39:39;;;;;;;7.30;5.77;;;16.70;92.60;;;;;;5054639;28;20459;-63
2022/05/15 06:42:11;;;;;;;6.33;5.00;;;16.80;92.50;;;;;;5054160;28;21013;-62
2022/05/15 06:44:38;;;;;;;9.20;5.73;;;17.00;92.30;;;;;;5050297;28;20503;-63
2022/05/15 06:47:08;;;;;;;7.43;5.73;;;17.10;92.20;;;;;;5052831;28;20559;-63
2022/05/15 06:49:35;;;;;;;6.30;5.70;;;17.20;91.90;;;;;;5052225;28;20470;-64
2022/05/15 06:52:02;;;;;;;6.93;5.57;;;17.40;92.00;;;;;;5048773;28;20440;-62
2022/05/15 06:54:30;;;;;;;6.40;5.40;;;17.50;91.90;;;;;;5052701;28;20441;-63
2022/05/15 06:59:41;;;;;;;5.77;4.73;;;17.80;91.80;;;;;;5052494;28;20590;-63
2022/05/15 07:02:10;;;;;;;8.53;5.57;;;18.00;91.30;;;;;;5052603;28;20439;-62
2022/05/15 07:04:38;;;;;;;6.90;5.40;;;18.10;90.80;;;;;;5051400;28;20437;-63
2022/05/15 07:07:06;;;;;;;7.50;6.30;;;18.20;90.60;;;;;;5052574;28;20433;-62
2022/05/15 07:09:33;;;;;;;6.73;5.83;;;18.30;91.00;;;;;;5051173;28;20853;-62
2022/05/15 07:12:00;;;;;;;7.50;5.67;;;18.50;90.70;;;;;;5052544;28;20440;-63
2022/05/15 07:14:28;;;;;;;7.00;5.40;;;18.60;90.50;;;;;;5051552;28;20440;-63
2022/05/15 07:16:55;;;;;;;8.13;4.90;;;18.80;90.10;;;;;;5052423;28;20479;-62
2022/05/15 07:19:24;;;;;;;9.70;6.10;;;18.90;89.30;;;;;;5052226;28;20543;-62
2022/05/15 07:21:51;;;;;;;6.90;5.30;;;19.00;89.20;;;;;;5052456;28;20527;-64
2022/05/15 07:24:19;;;;;;;5.80;4.87;;;19.10;88.70;;;;;;5047587;28;20923;-62
2022/05/15 07:26:46;;;;;;;7.20;5.20;;;19.20;86.80;;;;;;5052366;28;20423;-63
2022/05/15 07:29:14;;;;;;;6.47;5.40;;;19.30;85.60;;;;;;5052012;28;20432;-63
2022/05/15 07:31:42;;;;;;;5.80;4.90;;;19.40;84.90;;;;;;5052186;28;20476;-63
2022/05/15 07:34:10;;;;;;;8.80;6.70;;;19.60;85.10;;;;;;5051778;28;20437;-62
2022/05/15 07:36:39;;;;;;;8.20;5.23;;;19.70;84.80;;;;;;5052241;28;20421;-63
2022/05/15 07:39:07;;;;;;;7.13;4.97;;;19.90;84.80;;;;;;5051697;28;20484;-63
2022/05/15 07:41:34;;;;;;;8.00;5.23;;;20.00;82.80;;;;;;5051758;28;20515;-63
2022/05/15 07:44:02;;;;;;;7.60;4.47;;;20.10;82.10;;;;;;5051615;28;20441;-63
2022/05/15 07:46:29;;;;;;;8.70;5.10;;;20.30;84.10;;;;;;5051682;28;20480;-63
2022/05/15 07:48:57;;;;;;;7.13;5.50;;;20.40;82.60;;;;;;5051321;28;20441;-63
2022/05/15 07:51:24;;;;;;;6.47;5.07;;;20.50;82.50;;;;;;5047629;28;20951;-63
2022/05/15 07:53:53;;;;;;;5.70;4.73;;;20.70;82.80;;;;;;5051248;28;20487;-63
2022/05/15 07:56:20;;;;;;;7.00;4.53;;;20.90;83.00;;;;;;5051693;28;20905;-63
2022/05/15 07:58:49;;;;;;;6.07;5.17;;;21.10;82.20;;;;;;5051294;28;20477;-63
2022/05/15 08:01:16;;;;;;;11.07;5.40;;;21.20;80.50;;;;;;5051372;28;20520;-63
2022/05/15 08:03:44;;;;;;;8.50;4.80;;;21.30;79.60;;;;;;5051678;28;20982;-63
2022/05/15 08:09:00;;;;;;;8.93;4.57;;;21.60;76.70;;;;;;5051421;28;21565;-64
2022/05/15 08:11:28;;;;;;;6.37;4.60;;;21.80;77.40;;;;;;5051013;28;20490;-63
2022/05/15 08:13:57;;;;;;;11.43;5.03;;;22.00;77.50;;;;;;5050864;28;20445;-63
2022/05/15 08:16:25;;;;;;;7.47;4.40;;;22.10;75.40;;;;;;5049310;28;20465;-63
2022/05/15 08:24:22;;;;;;;5.80;4.20;;;22.50;72.70;;;;;;5042459;28;20432;-64
2022/05/15 08:26:49;;;;;;;10.60;5.20;;;22.60;72.20;;;;;;5049276;28;20433;-63
2022/05/15 08:29:18;;;;;;;6.63;4.87;;;22.80;72.80;;;;;;5050552;28;20445;-64
2022/05/15 08:31:46;;;;;;;10.33;5.40;;;22.90;72.80;;;;;;5049656;28;20463;-64
2022/05/15 08:34:13;;;;;;;7.50;4.67;;;23.10;72.80;;;;;;5050439;28;20853;-64
2022/05/15 08:36:42;;;;;;;5.93;4.77;;;23.20;71.70;;;;;;5049546;28;20541;-64
2022/05/15 08:39:09;;;;;;;7.10;4.30;;;23.30;69.60;;;;;;5050136;28;20827;-65
2022/05/15 08:41:47;;;;;;;6.90;4.20;;;23.40;69.20;;;;;;5049399;28;20527;-64
2022/05/15 08:44:18;;;;;;;9.33;4.40;;;23.60;68.80;;;;;;5050766;28;20444;-65
2022/05/15 08:47:05;;;;;;;4.80;4.27;;;23.70;68.20;;;;;;5050440;28;20492;-64
2022/05/15 08:49:35;;;;;;;5.13;4.50;;;23.80;67.60;;;;;;5049791;28;20437;-65
2022/05/15 08:52:10;;;;;;;5.93;4.40;;;23.90;62.30;;;;;;5046747;28;20915;-63
2022/05/15 08:54:41;;;;;;;5.30;3.67;;;24.00;60.90;;;;;;5049747;28;20524;-64
2022/05/15 08:57:17;;;;;;;7.73;4.40;;;24.10;58.80;;;;;;5048841;28;20437;-64
2022/05/15 08:59:55;;;;;;;5.23;3.90;;;24.20;60.70;;;;;;5050505;28;20531;-65
2022/05/15 09:02:23;;;;;;;4.63;3.57;;;24.30;60.80;;;;;;5050398;28;20448;-64
2022/05/15 09:04:52;;;;;;;6.30;3.50;;;24.50;61.70;;;;;;5051024;28;20875;-64
2022/05/15 09:07:30;;;;;;;5.97;4.57;;;24.70;60.30;;;;;;5049733;28;20438;-64
2022/05/15 09:10:11;;;;;;;7.70;3.23;;;24.80;57.20;;;;;;5046908;28;20497;-63
2022/05/15 09:12:55;;;;;;;5.77;3.50;;;24.90;56.90;;;;;;5049361;28;20501;-64
2022/05/15 09:15:27;;;;;;;4.20;2.50;;;25.10;57.50;;;;;;5048867;28;20441;-63
2022/05/15 09:18:00;;;;;;;5.37;3.37;;;25.20;48.80;;;;;;5049736;28;21022;-64
2022/05/15 09:20:51;;;;;;;6.23;2.97;;;25.30;48.80;;;;;;5050582;28;20482;-63
2022/05/15 09:23:25;;;;;;;7.40;3.00;;;25.40;47.50;;;;;;5047602;28;20944;-63
2022/05/15 09:25:55;;;;;;;7.63;3.17;;;25.40;47.00;;;;;;5050273;28;20429;-64
2022/05/15 09:28:26;;;;;;;4.70;2.73;;;25.50;48.20;;;;;;5046505;28;20513;-64
2022/05/15 09:30:55;;;;;;;3.67;3.00;;;25.60;50.70;;;;;;5050524;28;20444;-63
2022/05/15 09:33:30;;;;;;;4.50;2.57;;;25.70;50.20;;;;;;5049806;28;20502;-64
2022/05/15 09:36:18;;;;;;;3.70;2.47;;;25.80;48.90;;;;;;5050342;28;20438;-63
2022/05/15 09:38:45;;;;;;;5.60;2.93;;;25.90;48.70;;;;;;5052389;28;20477;-63
2022/05/15 09:44:06;;;;;;;4.03;2.67;;;26.20;49.10;;;;;;5054048;28;20487;-63
2022/05/15 09:46:33;;;;;;;4.77;2.90;;;26.30;47.60;;;;;;5053644;28;20544;-65
2022/05/15 09:49:06;;;;;;;3.97;2.20;;;26.40;46.30;;;;;;5053014;28;20855;-64
2022/05/15 09:51:45;;;;;;;4.90;3.23;;;26.40;47.30;;;;;;5054432;28;20455;-64
2022/05/15 09:54:29;;;;;;;3.77;2.70;;;26.60;47.40;;;;;;5049914;28;20451;-64
2022/05/15 09:57:11;;;;;;;6.27;2.67;;;26.70;46.00;;;;;;5053971;28;20797;-66
2022/05/15 09:59:40;;;;;;;4.33;2.50;;;26.80;46.90;;;;;;5051163;28;20910;-64
2022/05/15 10:02:18;;;;;;;4.20;2.90;;;26.90;46.80;;;;;;5053576;28;20486;-65
2022/05/15 10:04:49;;;;;;;4.47;3.80;;;27.00;46.60;;;;;;5053808;28;20436;-64
2022/05/15 10:07:32;;;;;;;7.40;3.00;;;27.10;46.50;;;;;;5053747;28;20532;-64
2022/05/15 10:10:15;;;;;;;4.63;2.53;;;27.10;46.30;;;;;;5050815;28;20449;-64
2022/05/15 10:12:44;;;;;;;5.13;3.10;;;27.20;46.00;;;;;;5052679;28;20436;-64
2022/05/15 10:15:15;;;;;;;5.60;2.97;;;27.30;45.10;;;;;;5052873;28;20435;-65
2022/05/15 10:17:50;;;;;;;7.03;3.40;;;27.30;44.60;;;;;;5053054;28;20447;-65
2022/05/15 10:20:23;;;;;;;5.10;3.33;;;27.40;44.30;;;;;;5053123;28;20460;-65
2022/05/15 10:22:57;;;;;;;4.60;2.90;;;27.40;42.70;;;;;;5053012;28;20926;-65
2022/05/15 10:25:35;;;;;;;4.87;3.40;;;27.50;44.10;;;;;;5049751;28;20796;-64
2022/05/15 10:28:13;;;;;;;4.47;2.80;;;27.40;40.70;;;;;;5053238;28;20545;-65
2022/05/15 10:30:50;;;;;;;5.53;3.20;;;27.40;42.70;;;;;;5049939;28;20445;-64
2022/05/15 10:33:21;;;;;;;3.70;2.80;;;27.50;43.70;;;;;;5052795;28;20451;-64
2022/05/15 10:35:56;;;;;;;7.13;3.30;;;27.60;42.90;;;;;;5051427;28;20494;-64
2022/05/15 10:38:36;;;;;;;3.97;2.30;;;27.60;43.70;;;;;;5053008;28;20522;-66
2022/05/15 10:41:15;;;;;;;4.90;2.77;;;27.70;40.60;;;;;;5050345;28;21029;-64
2022/05/15 10:44:03;;;;;;;5.07;2.60;;;27.80;39.70;;;;;;5052795;28;20506;-65
2022/05/15 10:46:41;;;;;;;3.10;2.40;;;27.80;41.00;;;;;;5051756;28;20467;-64
2022/05/15 10:49:23;;;;;;;3.23;2.50;;;27.80;40.60;;;;;;5052582;28;20494;-64
2022/05/15 10:52:00;;;;;;;5.53;3.27;;;27.90;40.30;;;;;;5052574;28;20467;-64
2022/05/15 10:57:32;;;;;;;4.33;2.97;;;27.90;41.60;;;;;;5052542;28;20535;-65
2022/05/15 11:00:09;;;;;;;3.50;2.40;;;27.90;38.70;;;;;;5048960;28;20487;-64
2022/05/15 11:03:03;;;;;;;6.03;2.57;;;27.90;40.80;;;;;;5051773;28;20443;-65
2022/05/15 11:05:31;;;;;;;4.50;2.50;;;27.90;39.00;;;;;;5052009;28;21005;-64
2022/05/15 11:08:10;;;;;;;7.03;2.70;;;28.00;38.50;;;;;;5052757;28;20436;-64
2022/05/15 11:10:45;;;;;;;4.80;2.80;;;28.00;38.10;;;;;;5052270;28;20464;-64
2022/05/15 11:13:23;;;;;;;6.67;2.40;;;28.00;36.30;;;;;;5050171;28;20812;-64
2022/05/15 11:15:58;;;;;;;5.20;2.50;;;28.00;36.90;;;;;;5048534;28;20436;-65
2022/05/15 11:18:48;;;;;;;6.73;2.83;;;28.00;34.80;;;;;;5046768;28;20583;-65
2022/05/15 11:21:26;;;;;;;7.60;3.10;;;27.90;34.20;;;;;;5048268;28;20459;-64
2022/05/15 11:24:00;;;;;;;5.50;2.50;;;27.90;35.50;;;;;;5050996;28;20428;-64
2022/05/15 11:26:32;;;;;;;4.20;2.30;;;27.90;36.70;;;;;;5050472;28;20439;-64
2022/05/15 11:29:04;;;;;;;3.47;2.20;;;27.90;37.30;;;;;;5050436;28;20437;-64
2022/05/15 11:31:36;;;;;;;4.80;3.00;;;27.80;36.20;;;;;;5050941;28;20448;-63
2022/05/15 11:34:06;;;;;;;5.30;2.77;;;27.90;37.60;;;;;;5050898;28;20437;-66
2022/05/15 11:36:36;;;;;;;3.90;2.90;;;27.90;36.90;;;;;;5050042;28;20777;-64
2022/05/15 11:39:24;;;;;;;5.97;2.90;;;27.90;38.80;;;;;;5047380;28;20480;-63
2022/05/15 11:42:17;;;;;;;5.13;2.40;;;28.00;34.30;;;;;;5050303;28;20440;-64
2022/05/15 11:44:46;;;;;;;2.97;2.50;;;28.00;34.40;;;;;;5050383;28;20449;-64
2022/05/15 11:47:32;;;;;;;6.73;3.07;;;27.90;36.00;;;;;;5046678;28;20469;-65
2022/05/15 11:50:30;;;;;;;4.80;2.83;;;28.00;37.20;;;;;;5041659;28;20437;-65
2022/05/15 11:53:07;;;;;;;4.47;2.20;;;28.10;37.90;;;;;;5044605;28;20978;-63
2022/05/15 11:55:50;;;;;;;8.80;3.30;;;28.10;37.80;;;;;;5043970;28;20451;-65
2022/05/15 11:58:34;;;;;;;3.87;2.53;;;28.20;38.20;;;;;;5047050;28;20433;-63
2022/05/15 12:01:14;;;;;;;4.17;2.87;;;28.20;36.90;;;;;;5047075;28;20469;-63
2022/05/15 12:03:56;;;;;;;6.83;2.83;;;28.20;36.10;;;;;;5044563;28;20531;-64
2022/05/15 12:06:27;;;;;;;5.10;2.90;;;28.10;35.70;;;;;;5046121;28;20441;-63
2022/05/15 12:09:28;;;;;;;4.80;2.40;;;28.10;37.90;;;;;;5048107;28;20442;-63
2022/05/15 12:11:57;;;;;;;4.40;2.63;;;28.10;36.20;;;;;;5044826;28;20968;-64
2022/05/15 12:14:35;;;;;;;3.80;2.33;;;28.10;36.30;;;;;;5030744;28;20501;-64
2022/05/15 12:17:13;;;;;;;2.90;2.20;;;28.10;34.50;;;;;;5043625;28;20441;-63
2022/05/15 12:19:46;;;;;;;5.13;2.77;;;28.10;35.60;;;;;;5047695;28;20503;-63
2022/05/15 12:22:16;;;;;;;7.23;2.43;;;28.00;35.60;;;;;;5045495;28;20446;-64
2022/05/15 12:24:47;;;;;;;6.30;2.73;;;27.90;35.30;;;;;;5047220;28;20447;-66
2022/05/15 12:27:24;;;;;;;6.03;2.90;;;27.90;36.20;;;;;;5048513;28;20809;-64
2022/05/15 12:30:09;;;;;;;3.20;2.00;;;27.90;36.60;;;;;;5047424;28;20558;-63
2022/05/15 12:32:39;;;;;;;4.83;2.27;;;27.90;36.00;;;;;;5046542;28;20563;-64
2022/05/15 12:35:12;;;;;;;5.30;2.50;;;27.90;36.50;;;;;;5048949;28;20476;-63
2022/05/15 12:37:53;;;;;;;4.43;2.33;;;28.00;35.00;;;;;;5046973;28;20460;-64
2022/05/15 12:40:26;;;;;;;4.60;2.60;;;28.00;35.40;;;;;;5047571;28;20567;-63
2022/05/15 12:42:54;;;;;;;5.50;2.80;;;27.90;36.10;;;;;;5047116;28;20484;-64
2022/05/15 12:45:23;;;;;;;3.63;2.60;;;27.90;36.80;;;;;;5048852;28;20478;-64
2022/05/15 12:48:02;;;;;;;4.53;2.37;;;27.90;35.00;;;;;;5047981;28;21031;-63
2022/05/15 12:50:30;;;;;;;6.73;2.50;;;27.90;37.60;;;;;;5044511;28;20797;-64
2022/05/15 12:53:02;;;;;;;4.57;2.37;;;27.90;36.00;;;;;;5047833;28;20895;-63
2022/05/15 12:55:32;;;;;;;5.00;2.30;;;27.80;34.80;;;;;;5048388;28;20491;-64
2022/05/15 12:58:05;;;;;;;4.33;2.53;;;27.90;36.10;;;;;;5047927;28;20447;-64
2022/05/15 13:00:36;;;;;;;3.10;2.20;;;27.90;36.40;;;;;;5048392;28;20491;-63
2022/05/15 13:03:08;;;;;;;4.43;2.50;;;27.80;34.60;;;;;;5047781;28;20490;-65
2022/05/15 13:05:37;;;;;;;4.10;2.60;;;27.80;35.50;;;;;;5041309;28;21038;-64
2022/05/15 13:08:09;;;;;;;4.23;3.17;;;27.80;34.70;;;;;;5047368;28;20463;-64
2022/05/15 13:10:41;;;;;;;4.40;2.40;;;27.80;34.60;;;;;;5047932;28;20479;-63
2022/05/15 13:13:20;;;;;;;6.50;2.70;;;27.70;36.60;;;;;;5047230;28;20811;-65
2022/05/15 13:15:50;;;;;;;3.70;2.33;;;27.70;38.10;;;;;;5050556;28;20492;-64
2022/05/15 13:18:18;;;;;;;3.60;2.20;;;27.80;38.00;;;;;;5051480;28;20817;-63
2022/05/15 13:20:50;;;;;;;3.07;2.40;;;27.80;37.70;;;;;;5051628;28;20504;-64
2022/05/15 13:23:19;;;;;;;3.30;2.70;;;27.80;37.60;;;;;;5050398;28;21477;-63
2022/05/15 13:25:51;;;;;;;4.73;2.47;;;27.90;36.30;;;;;;5052417;28;20444;-64